Time;durP1;ratioP1;P1;durP2;ratioP2;P2;SDS_P1;SDS_P2;PMS_P1;PMS_P2;Temp;Humidity;BMP_temperature;BMP_pressure;BME280_temperature;BME280_humidity;BME280_pressure;Samples;Min_cycle;Max_cycle;Signal;HPM_P1;HPM_P2
2022/08/24 00:01:47;;;;;;;8.70;5.80;;;;;;;;;;10355719;28;20049;-66
2022/08/24 00:06:45;;;;;;;10.38;6.05;;;;;;;;;;10355224;28;20455;-66
2022/08/24 00:11:43;;;;;;;7.28;5.88;;;;;;;;;;10354290;28;20486;-66
2022/08/24 00:16:43;;;;;;;7.80;5.55;;;;;;;;;;10363101;28;20071;-66
2022/08/24 00:21:42;;;;;;;8.55;6.03;;;;;;;;;;10369268;28;20519;-67
2022/08/24 00:26:40;;;;;;;8.18;5.68;;;;;;;;;;10367821;28;20449;-67
2022/08/24 00:31:38;;;;;;;6.93;6.32;;;;;;;;;;10357069;28;20155;-67
2022/08/24 00:36:38;;;;;;;9.48;6.47;;;;;;;;;;10352055;28;20072;-67
2022/08/24 00:41:40;;;;;;;12.38;5.90;;;;;;;;;;10346010;28;20083;-66
2022/08/24 00:46:42;;;;;;;10.57;6.47;;;;;;;;;;10348685;28;20095;-67
2022/08/24 00:51:46;;;;;;;10.02;7.93;;;;;;;;;;10345007;28;20509;-66
2022/08/24 00:56:52;;;;;;;12.60;6.25;;;;;;;;;;10345304;28;20079;-67
2022/08/24 01:01:52;;;;;;;11.35;5.72;;;;;;;;;;10329925;28;20413;-67
2022/08/24 01:06:51;;;;;;;12.55;6.55;;;;;;;;;;10348906;28;20060;-67
2022/08/24 01:11:50;;;;;;;9.10;5.95;;;;;;;;;;10346043;28;20068;-67
2022/08/24 01:22:16;;;;;;;11.18;5.85;;;;;;;;;;10330986;28;20055;-66
2022/08/24 01:27:16;;;;;;;7.10;5.10;;;;;;;;;;10328808;28;20173;-66
2022/08/24 01:32:19;;;;;;;9.10;5.40;;;;;;;;;;10346962;28;20454;-67
2022/08/24 01:37:17;;;;;;;9.60;5.70;;;;;;;;;;10322583;28;20496;-67
2022/08/24 01:42:17;;;;;;;11.88;6.80;;;;;;;;;;10323141;28;20048;-68
2022/08/24 01:47:18;;;;;;;8.85;5.15;;;;;;;;;;10322777;28;20091;-68
2022/08/24 01:52:18;;;;;;;7.18;5.15;;;;;;;;;;10321470;28;20063;-68
2022/08/24 01:57:19;;;;;;;7.30;4.63;;;;;;;;;;10346549;28;20064;-68
2022/08/24 02:02:22;;;;;;;9.17;5.30;;;;;;;;;;10339101;28;20067;-68
2022/08/24 02:07:21;;;;;;;7.53;5.03;;;;;;;;;;10345564;28;20029;-69
2022/08/24 02:12:21;;;;;;;6.78;4.18;;;;;;;;;;10336762;28;20464;-68
2022/08/24 02:17:20;;;;;;;8.80;4.78;;;;;;;;;;10322728;28;20068;-69
2022/08/24 02:22:20;;;;;;;6.13;4.15;;;;;;;;;;10342957;28;20087;-69
2022/08/24 02:27:19;;;;;;;7.38;4.68;;;;;;;;;;10321307;28;20060;-69
2022/08/24 02:32:19;;;;;;;5.22;4.18;;;;;;;;;;10324942;28;20082;-68
2022/08/24 02:37:18;;;;;;;9.23;4.32;;;;;;;;;;10337079;28;20089;-66
2022/08/24 02:42:17;;;;;;;5.82;4.03;;;;;;;;;;10336270;28;20222;-67
2022/08/24 02:47:16;;;;;;;6.28;3.88;;;;;;;;;;10343169;28;20070;-68
2022/08/24 02:52:16;;;;;;;7.68;4.15;;;;;;;;;;10343257;28;20082;-68
2022/08/24 02:57:14;;;;;;;4.60;3.45;;;;;;;;;;10342781;28;20072;-68
2022/08/24 03:02:13;;;;;;;5.40;3.80;;;;;;;;;;10318209;28;20109;-67
2022/08/24 03:07:12;;;;;;;6.80;4.03;;;;;;;;;;10318107;28;20071;-68
2022/08/24 03:12:11;;;;;;;6.38;3.90;;;;;;;;;;10325645;28;20079;-67
2022/08/24 03:17:10;;;;;;;5.28;3.75;;;;;;;;;;10325211;28;20071;-69
2022/08/24 03:22:08;;;;;;;5.18;3.60;;;;;;;;;;10342521;28;20040;-68
2022/08/24 03:27:07;;;;;;;8.20;3.55;;;;;;;;;;10326217;28;20417;-67
2022/08/24 03:32:07;;;;;;;7.18;3.78;;;;;;;;;;10326349;28;20048;-68
2022/08/24 03:37:05;;;;;;;7.40;3.75;;;;;;;;;;10322988;28;20083;-68
2022/08/24 03:42:04;;;;;;;7.70;3.85;;;;;;;;;;10322907;28;20059;-68
2022/08/24 03:47:02;;;;;;;14.50;5.63;;;;;;;;;;10341877;28;20080;-67
2022/08/24 03:52:03;;;;;;;8.77;3.83;;;;;;;;;;10323704;28;20055;-67
2022/08/24 03:57:02;;;;;;;7.13;3.88;;;;;;;;;;10342516;28;20083;-67
2022/08/24 04:02:00;;;;;;;6.88;3.97;;;;;;;;;;10322673;28;20585;-67
2022/08/24 04:06:59;;;;;;;14.35;4.68;;;;;;;;;;10341274;28;20068;-68
2022/08/24 04:11:59;;;;;;;7.65;5.07;;;;;;;;;;10323665;28;20522;-68
2022/08/24 04:16:57;;;;;;;10.32;5.30;;;;;;;;;;10347089;28;20083;-68
2022/08/24 04:22:02;;;;;;;7.43;4.45;;;;;;;;;;10330435;28;20052;-68
2022/08/24 04:27:02;;;;;;;12.70;5.13;;;;;;;;;;10330521;28;20055;-69
2022/08/24 04:32:02;;;;;;;8.60;4.88;;;;;;;;;;10338621;28;20086;-68
2022/08/24 04:37:00;;;;;;;6.53;3.85;;;;;;;;;;10332532;28;20080;-68
2022/08/24 04:42:00;;;;;;;7.22;4.65;;;;;;;;;;10342274;28;20406;-67
2022/08/24 04:47:07;;;;;;;10.52;4.38;;;;;;;;;;10331805;28;20537;-68
2022/08/24 04:52:08;;;;;;;6.55;4.35;;;;;;;;;;10347966;28;20520;-68
2022/08/24 04:57:07;;;;;;;9.95;4.55;;;;;;;;;;10331488;28;20531;-68
2022/08/24 05:02:07;;;;;;;11.27;4.55;;;;;;;;;;10331355;28;20070;-68
2022/08/24 05:07:06;;;;;;;17.52;4.72;;;;;;;;;;10349046;28;20071;-68
2022/08/24 05:12:05;;;;;;;9.88;4.80;;;;;;;;;;10330124;28;20044;-67
2022/08/24 05:17:09;;;;;;;10.63;4.18;;;;;;;;;;10330839;28;20095;-68
2022/08/24 05:22:07;;;;;;;12.32;4.78;;;;;;;;;;10326581;28;20044;-68
2022/08/24 05:27:10;;;;;;;10.23;4.43;;;;;;;;;;10328816;28;20047;-68
2022/08/24 05:32:12;;;;;;;14.98;4.85;;;;;;;;;;10327455;28;20044;-68
2022/08/24 05:37:12;;;;;;;8.77;4.45;;;;;;;;;;10339662;28;20101;-68
2022/08/24 05:42:35;;;;;;;7.95;5.07;;;;;;;;;;10335433;28;20060;-67
2022/08/24 05:47:39;;;;;;;6.60;4.95;;;;;;;;;;10326472;28;20049;-68
2022/08/24 05:52:56;;;;;;;15.05;5.00;;;;;;;;;;10323784;28;20067;-68
2022/08/24 05:57:55;;;;;;;6.88;3.78;;;;;;;;;;10327164;28;20095;-68
2022/08/24 06:02:56;;;;;;;9.63;4.45;;;;;;;;;;10326951;28;20076;-68
2022/08/24 06:07:55;;;;;;;5.68;3.78;;;;;;;;;;10336025;28;20079;-68
2022/08/24 06:12:54;;;;;;;6.78;4.68;;;;;;;;;;10339180;28;20051;-68
2022/08/24 06:17:53;;;;;;;6.82;3.85;;;;;;;;;;10356106;28;20079;-68
2022/08/24 06:22:53;;;;;;;4.60;3.22;;;;;;;;;;10322270;28;20081;-69
2022/08/24 06:27:54;;;;;;;8.60;4.97;;;;;;;;;;10321819;28;20106;-68
2022/08/24 06:32:52;;;;;;;8.82;4.07;;;;;;;;;;10322484;28;20465;-67
2022/08/24 06:38:00;;;;;;;9.57;4.53;;;;;;;;;;10323950;28;20084;-67
2022/08/24 06:43:01;;;;;;;7.05;3.60;;;;;;;;;;10325208;28;20059;-68
2022/08/24 06:48:17;;;;;;;6.50;3.97;;;;;;;;;;10324372;28;20060;-68
2022/08/24 06:53:17;;;;;;;4.15;3.78;;;;;;;;;;10324912;28;20063;-68
2022/08/24 06:58:17;;;;;;;11.63;4.60;;;;;;;;;;10336884;28;20440;-69
2022/08/24 07:03:15;;;;;;;10.10;4.05;;;;;;;;;;10338501;28;20074;-68
2022/08/24 07:08:24;;;;;;;9.05;4.22;;;;;;;;;;10338047;28;20040;-68
2022/08/24 07:13:22;;;;;;;7.38;4.38;;;;;;;;;;10342188;28;20052;-68
2022/08/24 07:18:21;;;;;;;9.43;4.03;;;;;;;;;;10316626;28;20083;-68
2022/08/24 07:23:21;;;;;;;5.97;4.07;;;;;;;;;;10321617;28;20047;-68
2022/08/24 07:28:40;;;;;;;5.72;3.53;;;;;;;;;;10338680;28;20150;-68
2022/08/24 07:33:40;;;;;;;6.25;3.60;;;;;;;;;;10323876;28;20048;-68
2022/08/24 07:38:39;;;;;;;4.00;3.55;;;;;;;;;;10324222;28;20072;-68
2022/08/24 07:43:38;;;;;;;8.30;4.25;;;;;;;;;;10323346;28;20051;-68
2022/08/24 07:48:42;;;;;;;7.95;5.05;;;;;;;;;;10325029;28;20421;-67
2022/08/24 07:53:41;;;;;;;8.45;4.78;;;;;;;;;;10332676;28;20054;-69
2022/08/24 07:58:56;;;;;;;8.95;3.83;;;;;;;;;;10336038;28;20174;-68
2022/08/24 08:03:56;;;;;;;6.60;3.42;;;;;;;;;;10349059;28;20067;-69
2022/08/24 08:08:54;;;;;;;5.47;3.75;;;;;;;;;;10349087;28;20068;-67
2022/08/24 08:13:54;;;;;;;6.30;3.90;;;;;;;;;;10329653;28;20052;-68
2022/08/24 08:18:52;;;;;;;4.57;3.30;;;;;;;;;;10330293;28;20076;-67
2022/08/24 08:24:17;;;;;;;9.00;4.30;;;;;;;;;;10329937;28;20051;-67
2022/08/24 08:29:23;;;;;;;11.50;4.47;;;;;;;;;;10339743;28;20513;-68
2022/08/24 08:34:22;;;;;;;9.48;6.82;;;;;;;;;;10329516;28;20401;-68
2022/08/24 08:39:24;;;;;;;5.05;3.88;;;;;;;;;;10329984;28;20048;-68
2022/08/24 08:44:36;;;;;;;9.80;3.80;;;;;;;;;;10331662;28;20044;-68
2022/08/24 08:49:43;;;;;;;8.38;4.05;;;;;;;;;;10328215;28;20048;-68
2022/08/24 08:54:46;;;;;;;10.23;3.80;;;;;;;;;;10347218;28;20460;-68
2022/08/24 08:59:56;;;;;;;6.53;4.10;;;;;;;;;;10327325;28;20072;-67
2022/08/24 09:05:10;;;;;;;5.40;3.90;;;;;;;;;;10328675;28;20085;-68
2022/08/24 09:10:24;;;;;;;7.03;3.67;;;;;;;;;;10343138;28;20040;-67
2022/08/24 09:15:32;;;;;;;14.45;6.15;;;;;;;;;;10327446;28;20040;-67
2022/08/24 09:20:49;;;;;;;12.90;4.38;;;;;;;;;;10346015;28;20063;-68
2022/08/24 09:25:50;;;;;;;5.70;4.38;;;;;;;;;;10345642;28;20087;-68
2022/08/24 09:31:00;;;;;;;10.10;4.40;;;;;;;;;;10343243;28;20040;-68
2022/08/24 09:36:09;;;;;;;8.80;4.55;;;;;;;;;;10343766;28;20068;-68
2022/08/24 09:41:24;;;;;;;12.88;4.28;;;;;;;;;;10347012;28;20557;-67
2022/08/24 09:46:40;;;;;;;9.85;4.35;;;;;;;;;;10350945;28;20048;-68
2022/08/24 09:52:05;;;;;;;6.63;3.65;;;;;;;;;;10349565;28;20103;-68
2022/08/24 09:57:16;;;;;;;12.45;4.10;;;;;;;;;;10359099;28;20047;-68
2022/08/24 10:02:27;;;;;;;10.57;4.00;;;;;;;;;;10347467;28;20064;-67
2022/08/24 10:07:30;;;;;;;11.00;3.95;;;;;;;;;;10341583;28;20051;-68
2022/08/24 10:12:35;;;;;;;8.20;4.43;;;;;;;;;;10344316;28;20063;-69
2022/08/24 10:17:39;;;;;;;9.82;4.20;;;;;;;;;;10338727;28;20449;-68
2022/08/24 10:23:00;;;;;;;12.45;5.05;;;;;;;;;;10343457;28;20470;-67
2022/08/24 10:28:09;;;;;;;15.50;5.38;;;;;;;;;;10343862;28;20075;-68
2022/08/24 10:33:13;;;;;;;14.05;5.00;;;;;;;;;;10324394;28;20082;-68
2022/08/24 10:43:50;;;;;;;15.23;4.80;;;;;;;;;;10343376;28;20052;-69
2022/08/24 10:49:04;;;;;;;11.45;5.70;;;;;;;;;;10343323;28;20055;-69
2022/08/24 10:54:03;;;;;;;9.52;5.18;;;;;;;;;;10342861;28;20100;-69
2022/08/24 10:59:07;;;;;;;17.20;7.60;;;;;;;;;;10342907;28;20071;-69
2022/08/24 11:04:07;;;;;;;11.02;4.65;;;;;;;;;;10341981;28;20072;-69
2022/08/24 11:09:08;;;;;;;16.13;5.80;;;;;;;;;;10342659;28;20048;-69
2022/08/24 11:14:09;;;;;;;15.00;6.25;;;;;;;;;;10341943;28;20532;-68
2022/08/24 11:19:09;;;;;;;13.98;5.53;;;;;;;;;;10341183;28;20090;-68
2022/08/24 11:24:10;;;;;;;12.85;5.28;;;;;;;;;;10340756;28;20067;-68
2022/08/24 11:29:10;;;;;;;9.82;6.85;;;;;;;;;;10340929;28;20454;-69
2022/08/24 11:34:09;;;;;;;14.15;5.00;;;;;;;;;;10341284;28;20048;-68
2022/08/24 11:39:13;;;;;;;13.70;6.13;;;;;;;;;;10340834;28;20098;-69
2022/08/24 11:44:15;;;;;;;18.00;6.13;;;;;;;;;;10340701;28;20080;-68
2022/08/24 11:49:19;;;;;;;9.65;5.95;;;;;;;;;;10335514;28;20433;-68
2022/08/24 11:54:23;;;;;;;17.10;5.97;;;;;;;;;;10336342;28;20480;-68
2022/08/24 11:59:26;;;;;;;21.15;6.13;;;;;;;;;;10339999;28;20071;-68
2022/08/24 12:04:38;;;;;;;15.85;6.00;;;;;;;;;;10340226;28;20066;-67
2022/08/24 12:09:43;;;;;;;8.25;4.63;;;;;;;;;;10322161;28;20076;-68
2022/08/24 12:14:44;;;;;;;22.00;6.22;;;;;;;;;;10341922;28;20083;-68
2022/08/24 12:19:46;;;;;;;19.05;7.53;;;;;;;;;;10340496;28;20059;-68
2022/08/24 12:24:46;;;;;;;20.35;4.75;;;;;;;;;;10339319;28;20068;-68
2022/08/24 12:29:48;;;;;;;16.33;5.18;;;;;;;;;;10340067;28;20075;-68
2022/08/24 12:34:50;;;;;;;20.88;5.13;;;;;;;;;;10340821;28;20445;-68
2022/08/24 12:39:55;;;;;;;24.42;5.00;;;;;;;;;;10347748;28;20146;-68
2022/08/24 12:44:58;;;;;;;24.05;5.97;;;;;;;;;;10347660;28;20036;-68
2022/08/24 12:49:56;;;;;;;;;;;;;;;;;;10346858;28;20071;-68
2022/08/24 12:55:15;;;;;;;16.05;4.85;;;;;;;;;;10346856;28;20394;-68
2022/08/24 13:00:17;;;;;;;10.15;4.05;;;;;;;;;;10348564;28;20497;-67
2022/08/24 13:05:17;;;;;;;17.25;4.72;;;;;;;;;;10348750;28;20477;-68
2022/08/24 13:10:33;;;;;;;21.95;4.90;;;;;;;;;;10344732;28;20469;-67
2022/08/24 13:15:52;;;;;;;17.25;4.40;;;;;;;;;;10349131;28;20051;-67
2022/08/24 13:20:54;;;;;;;18.35;4.93;;;;;;;;;;10345876;28;20089;-68
2022/08/24 13:25:55;;;;;;;19.10;5.35;;;;;;;;;;10345180;28;20071;-68
2022/08/24 13:31:09;;;;;;;14.20;4.10;;;;;;;;;;10345500;28;20075;-67
2022/08/24 13:36:36;;;;;;;20.83;6.22;;;;;;;;;;10346757;28;20079;-67
2022/08/24 13:41:49;;;;;;;19.63;6.35;;;;;;;;;;10346987;28;20086;-68
2022/08/24 13:46:52;;;;;;;20.77;4.80;;;;;;;;;;10330641;28;20726;-68
2022/08/24 13:51:50;;;;;;;;;;;;;;;;;;10345954;28;20063;-68
2022/08/24 13:57:02;;;;;;;25.55;5.07;;;;;;;;;;10344947;28;19944;-68
2022/08/24 14:02:07;;;;;;;18.85;4.63;;;;;;;;;;10344349;28;20523;-67
2022/08/24 14:07:11;;;;;;;18.70;4.85;;;;;;;;;;10344925;28;20051;-68
2022/08/24 14:12:17;;;;;;;23.80;5.35;;;;;;;;;;10345555;28;20067;-68
2022/08/24 14:22:39;;;;;;;23.70;5.95;;;;;;;;;;10337846;28;20064;-68
2022/08/24 14:27:39;;;;;;;17.23;4.72;;;;;;;;;;10344136;28;20044;-68
2022/08/24 14:32:46;;;;;;;19.10;5.70;;;;;;;;;;10343711;28;20079;-68
2022/08/24 14:38:03;;;;;;;16.58;4.25;;;;;;;;;;10342600;28;20072;-67
2022/08/24 14:43:06;;;;;;;26.95;4.68;;;;;;;;;;10343651;28;20071;-67
2022/08/24 14:48:09;;;;;;;14.07;4.22;;;;;;;;;;10342406;28;20088;-68
2022/08/24 14:53:29;;;;;;;21.48;4.47;;;;;;;;;;10343182;28;20070;-68
2022/08/24 14:58:32;;;;;;;17.63;4.82;;;;;;;;;;10341305;28;20473;-68
2022/08/24 15:03:45;;;;;;;21.42;6.65;;;;;;;;;;10343403;28;20075;-68
2022/08/24 15:08:43;;;;;;;15.65;4.15;;;;;;;;;;10342471;28;20499;-67
2022/08/24 15:13:44;;;;;;;14.55;4.22;;;;;;;;;;10341852;28;20071;-68
2022/08/24 15:18:47;;;;;;;18.75;4.15;;;;;;;;;;10342227;28;20065;-68
2022/08/24 15:23:50;;;;;;;18.08;4.43;;;;;;;;;;10343154;28;20064;-68
2022/08/24 15:28:49;;;;;;;21.85;5.10;;;;;;;;;;10341138;28;20076;-67
2022/08/24 15:33:56;;;;;;;12.85;4.10;;;;;;;;;;10356639;28;20428;-68
2022/08/24 15:38:55;;;;;;;27.70;4.93;;;;;;;;;;10355963;28;20055;-68
2022/08/24 15:43:57;;;;;;;20.83;5.20;;;;;;;;;;10355198;28;20098;-68
2022/08/24 15:49:01;;;;;;;23.88;6.38;;;;;;;;;;10334543;28;20083;-67
2022/08/24 15:54:13;;;;;;;14.90;4.60;;;;;;;;;;10341970;28;20071;-68
2022/08/24 15:59:13;;;;;;;18.85;4.72;;;;;;;;;;10346171;28;20075;-68
2022/08/24 16:04:13;;;;;;;17.55;4.43;;;;;;;;;;10335682;28;20082;-67
2022/08/24 16:09:32;;;;;;;15.75;4.45;;;;;;;;;;10335764;28;20091;-68
2022/08/24 16:14:31;;;;;;;22.90;4.82;;;;;;;;;;10345945;28;20071;-68
2022/08/24 16:19:33;;;;;;;14.30;4.85;;;;;;;;;;10348880;28;20449;-67
2022/08/24 16:24:32;;;;;;;19.02;3.72;;;;;;;;;;10348910;28;20083;-67
2022/08/24 16:29:44;;;;;;;21.63;6.43;;;;;;;;;;10346676;28;20484;-68
2022/08/24 16:34:46;;;;;;;19.85;5.20;;;;;;;;;;10352481;28;20063;-68
2022/08/24 16:39:44;;;;;;;21.50;8.48;;;;;;;;;;10347095;28;20080;-67
2022/08/24 16:44:43;;;;;;;24.10;5.85;;;;;;;;;;10347289;28;20072;-67
2022/08/24 16:49:41;;;;;;;9.52;5.50;;;;;;;;;;10346118;28;20082;-68
2022/08/24 16:54:42;;;;;;;17.17;6.30;;;;;;;;;;10348350;28;20466;-67
2022/08/24 16:59:41;;;;;;;12.60;5.55;;;;;;;;;;10346304;28;20047;-69
2022/08/24 17:04:42;;;;;;;18.60;5.10;;;;;;;;;;10347136;28;20071;-68
2022/08/24 17:09:43;;;;;;;11.70;4.55;;;;;;;;;;10328407;28;20073;-68
2022/08/24 17:14:42;;;;;;;14.38;4.88;;;;;;;;;;10346369;28;20064;-69
2022/08/24 17:19:40;;;;;;;21.20;4.97;;;;;;;;;;10346520;28;20064;-68
2022/08/24 17:24:42;;;;;;;12.88;6.07;;;;;;;;;;10346204;28;20444;-68
2022/08/24 17:29:40;;;;;;;10.75;4.45;;;;;;;;;;10345739;28;20458;-69
2022/08/24 17:34:39;;;;;;;26.17;6.18;;;;;;;;;;10345662;28;20120;-68
2022/08/24 17:39:38;;;;;;;13.02;7.22;;;;;;;;;;10345233;28;20073;-69
2022/08/24 17:44:38;;;;;;;14.48;5.95;;;;;;;;;;10346150;28;20076;-69
2022/08/24 17:49:37;;;;;;;11.43;5.38;;;;;;;;;;10325880;28;20729;-69
2022/08/24 17:54:35;;;;;;;17.85;7.35;;;;;;;;;;10344849;28;20075;-69
2022/08/24 17:59:34;;;;;;;17.13;5.15;;;;;;;;;;10345052;28;20083;-69
2022/08/24 18:04:35;;;;;;;12.38;5.80;;;;;;;;;;10344620;28;20618;-71
2022/08/24 18:09:34;;;;;;;16.90;5.07;;;;;;;;;;10343821;28;20075;-68
2022/08/24 18:14:35;;;;;;;11.60;5.15;;;;;;;;;;10344312;28;20068;-69
2022/08/24 18:19:35;;;;;;;15.00;5.95;;;;;;;;;;10343487;28;20071;-68
2022/08/24 18:24:33;;;;;;;18.95;5.70;;;;;;;;;;10344121;28;20075;-68
2022/08/24 18:29:32;;;;;;;18.38;6.78;;;;;;;;;;10342866;28;20466;-67
2022/08/24 18:34:31;;;;;;;15.55;5.15;;;;;;;;;;10343120;28;20079;-69
2022/08/24 18:39:32;;;;;;;11.20;5.07;;;;;;;;;;10357035;28;20040;-68
2022/08/24 18:44:31;;;;;;;18.35;6.63;;;;;;;;;;10338125;28;20071;-68
2022/08/24 18:49:29;;;;;;;17.35;5.75;;;;;;;;;;10355064;28;20505;-68
2022/08/24 18:54:30;;;;;;;30.38;6.78;;;;;;;;;;10347210;28;20064;-69
2022/08/24 18:59:30;;;;;;;16.98;4.93;;;;;;;;;;10355708;28;20036;-69
2022/08/24 19:04:29;;;;;;;19.58;6.25;;;;;;;;;;10355712;28;20075;-69
2022/08/24 19:09:30;;;;;;;15.95;5.53;;;;;;;;;;10346586;28;20097;-71
2022/08/24 19:14:33;;;;;;;23.42;4.93;;;;;;;;;;10348089;28;20090;-69
2022/08/24 19:19:31;;;;;;;20.55;5.35;;;;;;;;;;10351954;28;20067;-69
2022/08/24 19:24:31;;;;;;;31.88;5.88;;;;;;;;;;10354379;28;20079;-69
2022/08/24 19:29:30;;;;;;;14.23;5.07;;;;;;;;;;10342004;28;20059;-68
2022/08/24 19:34:49;;;;;;;19.10;6.32;;;;;;;;;;10345879;28;20538;-68
2022/08/24 19:39:48;;;;;;;16.65;5.05;;;;;;;;;;10344601;28;20067;-68
2022/08/24 19:50:07;;;;;;;15.98;6.13;;;;;;;;;;10351462;28;20109;-68
2022/08/24 19:55:06;;;;;;;21.17;6.90;;;;;;;;;;10346821;28;20079;-69
2022/08/24 20:00:19;;;;;;;20.70;5.57;;;;;;;;;;10356134;28;20584;-68
2022/08/24 20:05:20;;;;;;;20.48;6.15;;;;;;;;;;10349302;28;20075;-68
2022/08/24 20:10:19;;;;;;;18.75;6.75;;;;;;;;;;10327997;28;20079;-68
2022/08/24 20:15:18;;;;;;;25.92;6.80;;;;;;;;;;10351653;28;20063;-68
2022/08/24 20:20:18;;;;;;;28.38;8.10;;;;;;;;;;10343705;28;20075;-68
2022/08/24 20:25:19;;;;;;;31.13;9.82;;;;;;;;;;10346581;28;20071;-67
2022/08/24 20:30:17;;;;;;;20.60;7.10;;;;;;;;;;10344055;28;20102;-67
2022/08/24 20:35:16;;;;;;;17.88;6.88;;;;;;;;;;10345084;28;20067;-67
2022/08/24 20:40:15;;;;;;;17.92;6.88;;;;;;;;;;10343799;28;20071;-67
2022/08/24 20:45:15;;;;;;;13.73;6.30;;;;;;;;;;10344805;28;20063;-67
2022/08/24 20:50:15;;;;;;;23.70;6.72;;;;;;;;;;10347578;28;20056;-69
2022/08/24 20:55:13;;;;;;;17.48;6.35;;;;;;;;;;10329727;28;20062;-68
2022/08/24 21:00:12;;;;;;;14.05;5.25;;;;;;;;;;10348096;28;20497;-68
2022/08/24 21:05:12;;;;;;;20.45;6.50;;;;;;;;;;10347650;28;20498;-67
2022/08/24 21:10:11;;;;;;;16.63;5.07;;;;;;;;;;10347374;28;20040;-67
2022/08/24 21:15:09;;;;;;;19.65;5.38;;;;;;;;;;10347645;28;20067;-67
2022/08/24 21:20:09;;;;;;;20.35;5.60;;;;;;;;;;10347017;28;20074;-67
2022/08/24 21:25:10;;;;;;;14.20;5.13;;;;;;;;;;10346843;28;20076;-67
2022/08/24 21:30:10;;;;;;;17.95;5.10;;;;;;;;;;10348934;28;20048;-68
2022/08/24 21:35:09;;;;;;;14.20;5.95;;;;;;;;;;10346149;28;20071;-68
2022/08/24 21:40:13;;;;;;;16.45;6.15;;;;;;;;;;10346246;28;20064;-69
2022/08/24 21:45:12;;;;;;;19.95;6.47;;;;;;;;;;10346399;28;20068;-68
2022/08/24 21:50:10;;;;;;;17.83;5.72;;;;;;;;;;10345014;28;20083;-69
2022/08/24 21:55:09;;;;;;;15.52;5.55;;;;;;;;;;10345578;28;20074;-67
2022/08/24 22:00:16;;;;;;;16.23;6.15;;;;;;;;;;10344654;28;20059;-67
2022/08/24 22:05:15;;;;;;;14.73;6.03;;;;;;;;;;10347503;28;20079;-67
2022/08/24 22:10:14;;;;;;;19.05;6.15;;;;;;;;;;10345202;28;20795;-67
2022/08/24 22:15:15;;;;;;;17.95;6.18;;;;;;;;;;10344965;28;20074;-68
2022/08/24 22:20:17;;;;;;;18.98;6.88;;;;;;;;;;10326518;28;20044;-68
2022/08/24 22:25:22;;;;;;;14.75;5.80;;;;;;;;;;10343064;28;20079;-68
2022/08/24 22:30:21;;;;;;;22.05;6.45;;;;;;;;;;10346205;28;20481;-68
2022/08/24 22:35:20;;;;;;;17.27;6.50;;;;;;;;;;10344665;28;20044;-68
2022/08/24 22:40:18;;;;;;;9.77;5.68;;;;;;;;;;10343610;28;20516;-68
2022/08/24 22:45:17;;;;;;;17.95;5.75;;;;;;;;;;10327166;28;20068;-69
2022/08/24 22:50:16;;;;;;;20.55;6.40;;;;;;;;;;10347093;28;20449;-68
2022/08/24 22:55:14;;;;;;;19.25;6.88;;;;;;;;;;10357528;28;20091;-67
2022/08/24 23:00:13;;;;;;;15.75;6.60;;;;;;;;;;10355671;28;20036;-69
2022/08/24 23:05:13;;;;;;;10.63;6.32;;;;;;;;;;10344890;28;20086;-68
2022/08/24 23:10:15;;;;;;;23.73;7.40;;;;;;;;;;10341681;28;20064;-67
2022/08/24 23:15:13;;;;;;;27.23;7.47;;;;;;;;;;10344799;28;20067;-69
2022/08/24 23:20:12;;;;;;;27.40;7.32;;;;;;;;;;10342022;28;20051;-67
2022/08/24 23:25:11;;;;;;;17.08;6.32;;;;;;;;;;10342240;28;20169;-68
2022/08/24 23:30:12;;;;;;;26.27;6.60;;;;;;;;;;10340864;28;20040;-66
2022/08/24 23:35:10;;;;;;;24.80;7.40;;;;;;;;;;10341868;28;20071;-67
2022/08/24 23:40:12;;;;;;;21.20;6.75;;;;;;;;;;10341723;28;20051;-67
2022/08/24 23:45:12;;;;;;;14.13;6.72;;;;;;;;;;10341227;28;20084;-68
2022/08/24 23:50:11;;;;;;;21.65;7.22;;;;;;;;;;10341450;28;20048;-67
2022/08/24 23:55:09;;;;;;;23.17;7.57;;;;;;;;;;10340665;28;20048;-68
